Streatley Hill (HCC005 TT course)

Reading, West Berkshire, United Kingdom
  • Distance
    0.7 km
  • Elevation
    100 m
  • Grade
    13%

Overall Leaderboard

Speed Power
VAM
Time
Isaac M. 1 Isaac Mundy 18.7km/h 566 2,465.2 2:26
2 Daniel S. 18.4km/h 547 2,431.9 2:28
2 Adam Kenway 18.4km/h 550 2,431.9 2:28
4 Richard G. 18.3km/h 514 2,415.5 2:29
5 Chris B. 18.1km/h 519 2,383.5 2:31
5 Joe N. 18.1km/h 539 2,383.5 2:31
7 Michael Broadwith 17.9km/h 571 2,367.9 2:32
8 Leon W. 17.7km/h 462 2,337.1 2:34
8 Jonathan Shubert 17.7km/h 561 2,337.1 2:34
10 David R. 17.6km/h 429 2,322.0 2:35

Women's Leaderboard

Speed Power
VAM
Time
Emma G. 1 Emma Grant 14.7km/h 411 1,935.0 3:06
2 Maryka S. 14.4km/h 328 1,904.3 3:09
3 Bithja Jones 13.1km/h 300 1,730.4 3:28
4 Jacintha L. 12.7km/h 315 1,674.0 3:35
5 Olivia B. 12.2km/h 283 1,614.0 3:43
6 Karla B. 11.8km/h 279 1,558.1 3:51
6 Helen K. 11.8km/h 325 1,558.1 3:51
8 Clare L. 11.1km/h 263 1,469.0 4:05
9 Eva R. 11.1km/h 251 1,463.1 4:06
10 Ana O. 10.9km/h 245 1,445.4 4:09